sensor_id;sensor_type;location;lat;lon;timestamp;pressure;altitude;pressure_sealevel;temperature;humidity
69035;BME280;56091;55.756;37.412;2023-06-14T00:04:15;99403.00;;;15.54;44.36
69035;BME280;56091;55.756;37.412;2023-06-14T00:09:21;99401.38;;;15.53;44.83
69035;BME280;56091;55.756;37.412;2023-06-14T00:14:22;99407.16;;;15.47;45.60
69035;BME280;56091;55.756;37.412;2023-06-14T00:19:27;99399.06;;;15.36;45.22
69035;BME280;56091;55.756;37.412;2023-06-14T00:24:28;99390.47;;;15.24;45.67
69035;BME280;56091;55.756;37.412;2023-06-14T00:29:32;99391.53;;;15.23;45.45
69035;BME280;56091;55.756;37.412;2023-06-14T00:34:33;99410.53;;;15.28;45.98
69035;BME280;56091;55.756;37.412;2023-06-14T00:39:34;99399.75;;;15.18;46.56
69035;BME280;56091;55.756;37.412;2023-06-14T00:44:35;99404.88;;;15.19;46.72
69035;BME280;56091;55.756;37.412;2023-06-14T00:49:36;99411.97;;;15.15;46.64
69035;BME280;56091;55.756;37.412;2023-06-14T00:54:37;99412.56;;;15.12;47.24
69035;BME280;56091;55.756;37.412;2023-06-14T00:59:43;99405.50;;;15.06;46.97
69035;BME280;56091;55.756;37.412;2023-06-14T01:04:47;99409.63;;;14.98;46.12
69035;BME280;56091;55.756;37.412;2023-06-14T01:10:13;99399.34;;;14.95;47.11
69035;BME280;56091;55.756;37.412;2023-06-14T01:15:16;99405.34;;;14.92;46.65
69035;BME280;56091;55.756;37.412;2023-06-14T01:20:21;99398.56;;;14.90;46.68
69035;BME280;56091;55.756;37.412;2023-06-14T01:25:23;99401.84;;;14.87;46.75
69035;BME280;56091;55.756;37.412;2023-06-14T01:30:24;99397.50;;;14.86;46.71
69035;BME280;56091;55.756;37.412;2023-06-14T01:35:26;99393.69;;;14.87;46.99
69035;BME280;56091;55.756;37.412;2023-06-14T01:40:30;99414.00;;;14.99;47.25
69035;BME280;56091;55.756;37.412;2023-06-14T01:45:33;99398.78;;;14.98;48.12
69035;BME280;56091;55.756;37.412;2023-06-14T01:50:34;99400.41;;;14.99;46.98
69035;BME280;56091;55.756;37.412;2023-06-14T01:55:35;99397.59;;;15.15;47.23
69035;BME280;56091;55.756;37.412;2023-06-14T02:00:40;99411.94;;;15.26;48.17
69035;BME280;56091;55.756;37.412;2023-06-14T02:05:43;99418.97;;;15.27;48.32
69035;BME280;56091;55.756;37.412;2023-06-14T02:10:45;99411.34;;;15.29;48.15
69035;BME280;56091;55.756;37.412;2023-06-14T02:15:46;99408.69;;;15.58;47.85
69035;BME280;56091;55.756;37.412;2023-06-14T02:20:51;99402.31;;;15.38;47.37
69035;BME280;56091;55.756;37.412;2023-06-14T02:25:55;99403.13;;;15.39;47.25
69035;BME280;56091;55.756;37.412;2023-06-14T02:30:57;99406.34;;;15.46;47.15
69035;BME280;56091;55.756;37.412;2023-06-14T02:35:57;99413.63;;;15.51;47.27
69035;BME280;56091;55.756;37.412;2023-06-14T02:40:58;99412.78;;;15.55;47.03
69035;BME280;56091;55.756;37.412;2023-06-14T02:46:02;99421.44;;;15.57;47.02
69035;BME280;56091;55.756;37.412;2023-06-14T02:51:03;99420.41;;;15.53;47.37
69035;BME280;56091;55.756;37.412;2023-06-14T02:56:04;99420.00;;;15.36;47.41
69035;BME280;56091;55.756;37.412;2023-06-14T03:01:05;99425.31;;;15.51;47.50
69035;BME280;56091;55.756;37.412;2023-06-14T03:06:12;99424.53;;;15.46;47.76
69035;BME280;56091;55.756;37.412;2023-06-14T03:11:16;99435.91;;;15.53;47.88
69035;BME280;56091;55.756;37.412;2023-06-14T03:16:18;99436.94;;;15.62;48.04
69035;BME280;56091;55.756;37.412;2023-06-14T03:21:22;99417.38;;;15.60;47.84
69035;BME280;56091;55.756;37.412;2023-06-14T03:26:23;99410.97;;;15.80;48.14
69035;BME280;56091;55.756;37.412;2023-06-14T03:31:29;99428.31;;;16.13;47.39
69035;BME280;56091;55.756;37.412;2023-06-14T03:36:34;99427.97;;;16.20;47.61
69035;BME280;56091;55.756;37.412;2023-06-14T03:41:38;99422.69;;;16.05;48.19
69035;BME280;56091;55.756;37.412;2023-06-14T03:46:45;99400.53;;;15.92;48.73
69035;BME280;56091;55.756;37.412;2023-06-14T03:51:47;99425.50;;;16.24;48.24
69035;BME280;56091;55.756;37.412;2023-06-14T03:56:54;99424.59;;;16.33;47.66
69035;BME280;56091;55.756;37.412;2023-06-14T04:01:55;99430.66;;;16.49;47.24
69035;BME280;56091;55.756;37.412;2023-06-14T04:06:56;99422.59;;;16.63;47.31
69035;BME280;56091;55.756;37.412;2023-06-14T04:12:01;99430.81;;;16.82;46.75
69035;BME280;56091;55.756;37.412;2023-06-14T04:17:02;99422.59;;;16.87;46.54
69035;BME280;56091;55.756;37.412;2023-06-14T04:22:04;99429.97;;;17.06;45.89
69035;BME280;56091;55.756;37.412;2023-06-14T04:27:09;99428.72;;;17.17;45.70
69035;BME280;56091;55.756;37.412;2023-06-14T04:32:11;99426.63;;;17.47;44.94
69035;BME280;56091;55.756;37.412;2023-06-14T04:37:14;99422.84;;;17.62;44.45
69035;BME280;56091;55.756;37.412;2023-06-14T04:42:16;99420.63;;;17.31;45.61
69035;BME280;56091;55.756;37.412;2023-06-14T04:47:18;99419.72;;;17.35;45.78
69035;BME280;56091;55.756;37.412;2023-06-14T04:52:19;99424.50;;;17.44;45.76
69035;BME280;56091;55.756;37.412;2023-06-14T04:57:22;99430.00;;;17.58;45.83
69035;BME280;56091;55.756;37.412;2023-06-14T05:02:25;99423.56;;;17.86;44.61
69035;BME280;56091;55.756;37.412;2023-06-14T05:07:28;99422.09;;;18.22;42.63
69035;BME280;56091;55.756;37.412;2023-06-14T05:12:29;99414.81;;;18.45;42.01
69035;BME280;56091;55.756;37.412;2023-06-14T05:17:30;99415.13;;;18.43;41.18
69035;BME280;56091;55.756;37.412;2023-06-14T05:22:31;99421.00;;;18.50;40.91
69035;BME280;56091;55.756;37.412;2023-06-14T05:27:31;99424.63;;;18.60;39.29
69035;BME280;56091;55.756;37.412;2023-06-14T05:32:32;99418.66;;;18.71;38.84
69035;BME280;56091;55.756;37.412;2023-06-14T05:37:33;99433.16;;;18.86;39.09
69035;BME280;56091;55.756;37.412;2023-06-14T05:42:34;99424.59;;;19.01;37.86
69035;BME280;56091;55.756;37.412;2023-06-14T05:47:35;99398.03;;;19.16;37.25
69035;BME280;56091;55.756;37.412;2023-06-14T05:52:36;99429.47;;;19.41;36.85
69035;BME280;56091;55.756;37.412;2023-06-14T05:57:37;99432.31;;;19.58;36.24
69035;BME280;56091;55.756;37.412;2023-06-14T06:02:38;99425.97;;;19.72;35.86
69035;BME280;56091;55.756;37.412;2023-06-14T06:07:39;99416.78;;;19.90;35.45
69035;BME280;56091;55.756;37.412;2023-06-14T06:12:45;99434.00;;;19.91;35.22
69035;BME280;56091;55.756;37.412;2023-06-14T06:17:47;99424.34;;;19.93;34.58
69035;BME280;56091;55.756;37.412;2023-06-14T06:22:48;99427.16;;;20.02;34.44
69035;BME280;56091;55.756;37.412;2023-06-14T06:27:49;99390.25;;;19.99;33.49
69035;BME280;56091;55.756;37.412;2023-06-14T06:32:50;99428.88;;;20.29;33.51
69035;BME280;56091;55.756;37.412;2023-06-14T06:37:52;99408.78;;;20.42;33.93
69035;BME280;56091;55.756;37.412;2023-06-14T06:42:56;99416.81;;;20.70;32.33
69035;BME280;56091;55.756;37.412;2023-06-14T06:48:01;99422.78;;;20.90;31.73
69035;BME280;56091;55.756;37.412;2023-06-14T06:53:02;99398.78;;;21.04;30.72
69035;BME280;56091;55.756;37.412;2023-06-14T06:58:03;99414.91;;;21.14;30.45
69035;BME280;56091;55.756;37.412;2023-06-14T07:03:08;99407.66;;;21.27;29.95
69035;BME280;56091;55.756;37.412;2023-06-14T07:08:12;99391.19;;;21.18;30.30
69035;BME280;56091;55.756;37.412;2023-06-14T07:13:13;99400.41;;;21.22;30.52
69035;BME280;56091;55.756;37.412;2023-06-14T07:18:14;99406.88;;;21.44;30.05
69035;BME280;56091;55.756;37.412;2023-06-14T07:23:15;99407.19;;;21.51;30.49
69035;BME280;56091;55.756;37.412;2023-06-14T07:28:17;99390.72;;;21.51;30.57
69035;BME280;56091;55.756;37.412;2023-06-14T07:33:18;99405.38;;;21.64;30.01
69035;BME280;56091;55.756;37.412;2023-06-14T07:38:19;99395.09;;;21.61;29.41
69035;BME280;56091;55.756;37.412;2023-06-14T07:43:19;99398.94;;;21.69;29.53
69035;BME280;56091;55.756;37.412;2023-06-14T07:48:20;99397.47;;;21.62;29.61
69035;BME280;56091;55.756;37.412;2023-06-14T07:53:21;99398.78;;;21.65;28.90
69035;BME280;56091;55.756;37.412;2023-06-14T07:58:22;99388.97;;;21.55;29.04
69035;BME280;56091;55.756;37.412;2023-06-14T08:03:23;99393.25;;;21.74;29.73
69035;BME280;56091;55.756;37.412;2023-06-14T08:08:24;99395.72;;;21.32;29.88
69035;BME280;56091;55.756;37.412;2023-06-14T08:13:25;99393.47;;;21.42;30.16
69035;BME280;56091;55.756;37.412;2023-06-14T08:18:26;99399.44;;;21.62;29.04
69035;BME280;56091;55.756;37.412;2023-06-14T08:23:27;99394.59;;;21.59;29.54
69035;BME280;56091;55.756;37.412;2023-06-14T08:28:28;99388.13;;;21.63;28.81
69035;BME280;56091;55.756;37.412;2023-06-14T08:33:28;99400.53;;;21.78;28.76
69035;BME280;56091;55.756;37.412;2023-06-14T08:38:30;99404.22;;;21.91;28.13
69035;BME280;56091;55.756;37.412;2023-06-14T08:43:33;99391.69;;;22.11;28.77
69035;BME280;56091;55.756;37.412;2023-06-14T08:48:34;99387.78;;;22.30;28.21
69035;BME280;56091;55.756;37.412;2023-06-14T08:53:36;99382.44;;;22.25;28.13
69035;BME280;56091;55.756;37.412;2023-06-14T08:58:44;99377.63;;;22.21;28.06
69035;BME280;56091;55.756;37.412;2023-06-14T09:03:46;99373.28;;;22.12;27.71
69035;BME280;56091;55.756;37.412;2023-06-14T09:08:49;99383.59;;;22.23;27.65
69035;BME280;56091;55.756;37.412;2023-06-14T09:13:50;99362.91;;;22.26;27.61
69035;BME280;56091;55.756;37.412;2023-06-14T09:18:50;99369.22;;;22.56;27.23
69035;BME280;56091;55.756;37.412;2023-06-14T09:23:51;99359.25;;;22.73;26.61
69035;BME280;56091;55.756;37.412;2023-06-14T09:28:54;99358.78;;;22.92;26.97
69035;BME280;56091;55.756;37.412;2023-06-14T09:33:55;99364.63;;;22.90;26.84
69035;BME280;56091;55.756;37.412;2023-06-14T09:38:58;99359.72;;;22.96;26.54
69035;BME280;56091;55.756;37.412;2023-06-14T09:44:02;99361.72;;;23.29;26.68
69035;BME280;56091;55.756;37.412;2023-06-14T09:49:05;99348.13;;;23.45;26.62
69035;BME280;56091;55.756;37.412;2023-06-14T09:54:09;99357.16;;;23.66;26.14
69035;BME280;56091;55.756;37.412;2023-06-14T09:59:13;99347.06;;;23.70;25.92
69035;BME280;56091;55.756;37.412;2023-06-14T10:04:18;99348.09;;;23.66;25.99
69035;BME280;56091;55.756;37.412;2023-06-14T10:09:22;99339.34;;;23.64;25.89
69035;BME280;56091;55.756;37.412;2023-06-14T10:14:29;99338.13;;;23.73;25.54
69035;BME280;56091;55.756;37.412;2023-06-14T10:19:48;99319.78;;;23.77;25.26
69035;BME280;56091;55.756;37.412;2023-06-14T10:24:52;99334.50;;;23.82;25.51
69035;BME280;56091;55.756;37.412;2023-06-14T10:35:05;99324.88;;;23.88;25.50
69035;BME280;56091;55.756;37.412;2023-06-14T10:40:29;99322.69;;;23.93;25.69
69035;BME280;56091;55.756;37.412;2023-06-14T10:45:30;99307.31;;;24.05;25.74
69035;BME280;56091;55.756;37.412;2023-06-14T10:50:31;99309.06;;;24.09;26.09
69035;BME280;56091;55.756;37.412;2023-06-14T10:55:35;99308.94;;;24.06;25.21
69035;BME280;56091;55.756;37.412;2023-06-14T11:00:37;99290.22;;;23.99;25.25
69035;BME280;56091;55.756;37.412;2023-06-14T11:05:51;99282.41;;;24.13;25.57
69035;BME280;56091;55.756;37.412;2023-06-14T11:10:55;99288.81;;;24.30;25.12
69035;BME280;56091;55.756;37.412;2023-06-14T11:15:59;99284.59;;;24.32;25.12
69035;BME280;56091;55.756;37.412;2023-06-14T11:21:00;99281.81;;;24.57;25.06
69035;BME280;56091;55.756;37.412;2023-06-14T11:26:01;99292.28;;;24.51;25.12
69035;BME280;56091;55.756;37.412;2023-06-14T11:31:03;99269.97;;;24.57;25.61
69035;BME280;56091;55.756;37.412;2023-06-14T11:36:06;99283.16;;;24.51;24.69
69035;BME280;56091;55.756;37.412;2023-06-14T11:41:09;99276.28;;;24.45;25.06
69035;BME280;56091;55.756;37.412;2023-06-14T11:46:14;99271.81;;;24.40;25.01
69035;BME280;56091;55.756;37.412;2023-06-14T11:51:19;99271.91;;;24.56;24.90
69035;BME280;56091;55.756;37.412;2023-06-14T11:56:20;99266.09;;;24.33;24.99
69035;BME280;56091;55.756;37.412;2023-06-14T12:01:21;99267.19;;;24.97;23.95
69035;BME280;56091;55.756;37.412;2023-06-14T12:06:26;99230.72;;;25.48;24.07
69035;BME280;56091;55.756;37.412;2023-06-14T12:11:34;99250.00;;;26.47;22.62
69035;BME280;56091;55.756;37.412;2023-06-14T12:16:38;99259.88;;;26.83;21.41
69035;BME280;56091;55.756;37.412;2023-06-14T12:21:41;99236.09;;;28.74;19.38
69035;BME280;56091;55.756;37.412;2023-06-14T12:26:42;99253.03;;;32.18;16.27
69035;BME280;56091;55.756;37.412;2023-06-14T12:31:43;99244.78;;;35.89;13.54
69035;BME280;56091;55.756;37.412;2023-06-14T12:36:44;99234.47;;;38.34;11.08
69035;BME280;56091;55.756;37.412;2023-06-14T12:41:47;99236.25;;;39.24;9.97
69035;BME280;56091;55.756;37.412;2023-06-14T12:46:49;99227.66;;;40.24;9.69
69035;BME280;56091;55.756;37.412;2023-06-14T12:51:51;99218.94;;;40.31;8.90
69035;BME280;56091;55.756;37.412;2023-06-14T12:56:54;99230.06;;;41.41;8.85
69035;BME280;56091;55.756;37.412;2023-06-14T13:01:55;99232.88;;;41.41;8.53
69035;BME280;56091;55.756;37.412;2023-06-14T13:07:10;99224.22;;;43.02;7.53
69035;BME280;56091;55.756;37.412;2023-06-14T13:12:15;99232.19;;;41.68;8.27
69035;BME280;56091;55.756;37.412;2023-06-14T13:17:16;99210.38;;;41.28;8.46
69035;BME280;56091;55.756;37.412;2023-06-14T13:22:17;99218.25;;;40.39;8.82
69035;BME280;56091;55.756;37.412;2023-06-14T13:27:18;99218.50;;;41.17;8.10
69035;BME280;56091;55.756;37.412;2023-06-14T13:32:20;99211.91;;;41.88;7.98
69035;BME280;56091;55.756;37.412;2023-06-14T13:37:22;99178.47;;;39.90;9.07
69035;BME280;56091;55.756;37.412;2023-06-14T13:42:22;99203.88;;;42.42;7.68
69035;BME280;56091;55.756;37.412;2023-06-14T13:47:23;99189.41;;;42.49;7.50
69035;BME280;56091;55.756;37.412;2023-06-14T13:52:25;99202.41;;;44.14;6.55
69035;BME280;56091;55.756;37.412;2023-06-14T13:57:26;99197.03;;;43.92;6.64
69035;BME280;56091;55.756;37.412;2023-06-14T14:02:27;99194.34;;;42.82;7.00
69035;BME280;56091;55.756;37.412;2023-06-14T14:07:29;99196.41;;;42.72;7.39
69035;BME280;56091;55.756;37.412;2023-06-14T14:12:30;99207.44;;;43.13;6.74
69035;BME280;56091;55.756;37.412;2023-06-14T14:17:31;99190.53;;;41.78;7.35
69035;BME280;56091;55.756;37.412;2023-06-14T14:22:31;99193.44;;;43.09;7.45
69035;BME280;56091;55.756;37.412;2023-06-14T14:27:33;99197.56;;;41.46;7.66
69035;BME280;56091;55.756;37.412;2023-06-14T14:32:34;99196.78;;;41.05;8.14
69035;BME280;56091;55.756;37.412;2023-06-14T14:37:35;99193.31;;;41.50;7.88
69035;BME280;56091;55.756;37.412;2023-06-14T14:42:36;99182.03;;;42.85;7.30
69035;BME280;56091;55.756;37.412;2023-06-14T14:47:37;99179.00;;;44.19;6.48
69035;BME280;56091;55.756;37.412;2023-06-14T14:52:40;99209.28;;;45.32;5.88
69035;BME280;56091;55.756;37.412;2023-06-14T14:57:41;99199.47;;;45.53;6.03
69035;BME280;56091;55.756;37.412;2023-06-14T15:02:43;99198.75;;;45.58;6.07
69035;BME280;56091;55.756;37.412;2023-06-14T15:07:43;99196.72;;;45.24;5.98
69035;BME280;56091;55.756;37.412;2023-06-14T15:12:46;99196.13;;;44.99;6.16
69035;BME280;56091;55.756;37.412;2023-06-14T15:17:46;99180.94;;;44.72;5.74
69035;BME280;56091;55.756;37.412;2023-06-14T15:22:47;99204.16;;;43.39;6.82
69035;BME280;56091;55.756;37.412;2023-06-14T15:27:50;99201.22;;;43.00;6.95
69035;BME280;56091;55.756;37.412;2023-06-14T15:32:57;99206.50;;;40.72;8.33
69035;BME280;56091;55.756;37.412;2023-06-14T15:37:58;99198.91;;;39.94;9.02
69035;BME280;56091;55.756;37.412;2023-06-14T15:42:59;99200.88;;;40.50;8.63
69035;BME280;56091;55.756;37.412;2023-06-14T15:48:00;99195.88;;;40.10;9.20
69035;BME280;56091;55.756;37.412;2023-06-14T15:53:01;99203.34;;;40.92;8.56
69035;BME280;56091;55.756;37.412;2023-06-14T15:58:02;99205.69;;;40.63;8.86
69035;BME280;56091;55.756;37.412;2023-06-14T16:03:04;99199.84;;;40.88;8.27
69035;BME280;56091;55.756;37.412;2023-06-14T16:08:04;99194.81;;;39.95;8.94
69035;BME280;56091;55.756;37.412;2023-06-14T16:13:07;99199.66;;;39.59;9.54
69035;BME280;56091;55.756;37.412;2023-06-14T16:18:08;99161.25;;;38.76;9.75
69035;BME280;56091;55.756;37.412;2023-06-14T16:23:08;99204.06;;;38.71;10.00
69035;BME280;56091;55.756;37.412;2023-06-14T16:28:09;99202.53;;;37.33;11.18
69035;BME280;56091;55.756;37.412;2023-06-14T16:33:10;99206.22;;;37.46;10.81
69035;BME280;56091;55.756;37.412;2023-06-14T16:38:11;99211.03;;;35.92;11.53
69035;BME280;56091;55.756;37.412;2023-06-14T16:43:12;99216.28;;;32.48;14.31
69035;BME280;56091;55.756;37.412;2023-06-14T16:48:12;99220.72;;;30.18;16.09
69035;BME280;56091;55.756;37.412;2023-06-14T16:53:13;99232.19;;;28.79;17.47
69035;BME280;56091;55.756;37.412;2023-06-14T16:58:14;99231.59;;;27.82;18.56
69035;BME280;56091;55.756;37.412;2023-06-14T17:03:15;99238.00;;;27.17;19.05
69035;BME280;56091;55.756;37.412;2023-06-14T17:08:16;99235.44;;;26.66;19.38
69035;BME280;56091;55.756;37.412;2023-06-14T17:13:17;99233.28;;;25.88;19.99
69035;BME280;56091;55.756;37.412;2023-06-14T17:18:18;99242.72;;;25.87;19.96
69035;BME280;56091;55.756;37.412;2023-06-14T17:23:18;99237.41;;;27.51;18.36
69035;BME280;56091;55.756;37.412;2023-06-14T17:28:19;99236.63;;;28.53;17.15
69035;BME280;56091;55.756;37.412;2023-06-14T17:33:20;99226.34;;;28.54;17.32
69035;BME280;56091;55.756;37.412;2023-06-14T17:38:21;99234.63;;;28.23;16.91
69035;BME280;56091;55.756;37.412;2023-06-14T17:43:21;99241.25;;;26.61;18.92
69035;BME280;56091;55.756;37.412;2023-06-14T17:48:23;99240.94;;;25.31;20.79
69035;BME280;56091;55.756;37.412;2023-06-14T17:53:24;99240.63;;;24.64;21.16
69035;BME280;56091;55.756;37.412;2023-06-14T17:58:25;99244.88;;;24.09;21.83
69035;BME280;56091;55.756;37.412;2023-06-14T18:03:26;99248.28;;;23.69;21.99
69035;BME280;56091;55.756;37.412;2023-06-14T18:08:27;99249.75;;;23.42;22.58
69035;BME280;56091;55.756;37.412;2023-06-14T18:13:28;99250.66;;;23.00;22.58
69035;BME280;56091;55.756;37.412;2023-06-14T18:18:29;99266.38;;;22.78;23.37
69035;BME280;56091;55.756;37.412;2023-06-14T18:23:30;99259.00;;;22.49;23.41
69035;BME280;56091;55.756;37.412;2023-06-14T18:28:36;99263.38;;;22.29;23.93
69035;BME280;56091;55.756;37.412;2023-06-14T18:33:37;99258.78;;;22.03;23.99
69035;BME280;56091;55.756;37.412;2023-06-14T18:38:37;99269.19;;;21.89;24.96
69035;BME280;56091;55.756;37.412;2023-06-14T18:43:41;99249.03;;;21.55;25.22
69035;BME280;56091;55.756;37.412;2023-06-14T18:48:42;99273.50;;;21.60;25.63
69035;BME280;56091;55.756;37.412;2023-06-14T18:53:44;99266.78;;;21.49;25.94
69035;BME280;56091;55.756;37.412;2023-06-14T18:58:46;99252.13;;;21.28;26.44
69035;BME280;56091;55.756;37.412;2023-06-14T19:03:46;99265.22;;;21.13;27.05
69035;BME280;56091;55.756;37.412;2023-06-14T19:08:47;99249.75;;;21.00;27.28
69035;BME280;56091;55.756;37.412;2023-06-14T19:13:48;99263.19;;;20.93;28.08
69035;BME280;56091;55.756;37.412;2023-06-14T19:18:49;99264.47;;;20.78;28.43
69035;BME280;56091;55.756;37.412;2023-06-14T19:23:50;99234.13;;;20.48;28.94
69035;BME280;56091;55.756;37.412;2023-06-14T19:28:51;99263.81;;;20.63;29.17
69035;BME280;56091;55.756;37.412;2023-06-14T19:33:52;99262.53;;;20.61;29.14
69035;BME280;56091;55.756;37.412;2023-06-14T19:38:53;99269.75;;;20.57;29.41
69035;BME280;56091;55.756;37.412;2023-06-14T19:43:57;99268.28;;;20.51;29.80
69035;BME280;56091;55.756;37.412;2023-06-14T19:48:57;99246.19;;;20.29;29.63
69035;BME280;56091;55.756;37.412;2023-06-14T19:53:58;99269.41;;;20.32;29.79
69035;BME280;56091;55.756;37.412;2023-06-14T19:58:59;99266.97;;;20.22;30.13
69035;BME280;56091;55.756;37.412;2023-06-14T20:04:02;99272.59;;;20.17;30.73
69035;BME280;56091;55.756;37.412;2023-06-14T20:09:03;99278.84;;;20.08;30.69
69035;BME280;56091;55.756;37.412;2023-06-14T20:14:15;99258.03;;;19.90;30.96
69035;BME280;56091;55.756;37.412;2023-06-14T20:19:16;99286.56;;;19.98;31.16
69035;BME280;56091;55.756;37.412;2023-06-14T20:24:16;99277.50;;;19.88;31.63
69035;BME280;56091;55.756;37.412;2023-06-14T20:29:17;99276.19;;;19.86;31.88
69035;BME280;56091;55.756;37.412;2023-06-14T20:34:18;99265.22;;;19.77;32.76
69035;BME280;56091;55.756;37.412;2023-06-14T20:39:19;99276.84;;;19.83;32.52
69035;BME280;56091;55.756;37.412;2023-06-14T20:44:20;99282.63;;;19.81;33.30
69035;BME280;56091;55.756;37.412;2023-06-14T20:49:21;99281.88;;;19.67;32.42
69035;BME280;56091;55.756;37.412;2023-06-14T20:54:22;99284.13;;;19.65;33.28
69035;BME280;56091;55.756;37.412;2023-06-14T20:59:23;99284.84;;;19.48;33.02
69035;BME280;56091;55.756;37.412;2023-06-14T21:04:27;99279.03;;;19.41;33.68
69035;BME280;56091;55.756;37.412;2023-06-14T21:09:29;99289.97;;;19.41;33.42
69035;BME280;56091;55.756;37.412;2023-06-14T21:14:30;99285.56;;;19.31;33.42
69035;BME280;56091;55.756;37.412;2023-06-14T21:19:31;99270.38;;;19.16;33.86
69035;BME280;56091;55.756;37.412;2023-06-14T21:24:32;99294.63;;;19.18;33.89
69035;BME280;56091;55.756;37.412;2023-06-14T21:29:32;99283.16;;;19.07;33.67
69035;BME280;56091;55.756;37.412;2023-06-14T21:34:33;99293.41;;;19.01;34.37
69035;BME280;56091;55.756;37.412;2023-06-14T21:39:34;99286.09;;;18.88;34.48
69035;BME280;56091;55.756;37.412;2023-06-14T21:44:42;99290.94;;;18.77;34.91
69035;BME280;56091;55.756;37.412;2023-06-14T21:49:44;99279.44;;;18.66;35.02
69035;BME280;56091;55.756;37.412;2023-06-14T21:54:45;99284.69;;;18.63;35.29
69035;BME280;56091;55.756;37.412;2023-06-14T21:59:46;99276.75;;;18.52;35.32
69035;BME280;56091;55.756;37.412;2023-06-14T22:04:47;99288.28;;;18.49;35.65
69035;BME280;56091;55.756;37.412;2023-06-14T22:09:47;99278.59;;;18.43;36.20
69035;BME280;56091;55.756;37.412;2023-06-14T22:14:49;99284.50;;;18.37;36.29
69035;BME280;56091;55.756;37.412;2023-06-14T22:19:50;99284.88;;;18.30;36.57
69035;BME280;56091;55.756;37.412;2023-06-14T22:24:53;99283.19;;;18.20;36.88
69035;BME280;56091;55.756;37.412;2023-06-14T22:29:54;99284.28;;;18.19;37.42
69035;BME280;56091;55.756;37.412;2023-06-14T22:34:58;99273.69;;;18.04;37.30
69035;BME280;56091;55.756;37.412;2023-06-14T22:40:07;99277.84;;;18.01;37.59
69035;BME280;56091;55.756;37.412;2023-06-14T22:45:12;99275.34;;;17.91;37.55
69035;BME280;56091;55.756;37.412;2023-06-14T22:50:17;99273.00;;;17.84;37.83
69035;BME280;56091;55.756;37.412;2023-06-14T22:55:18;99275.00;;;17.79;37.90
69035;BME280;56091;55.756;37.412;2023-06-14T23:00:20;99272.97;;;17.70;38.42
69035;BME280;56091;55.756;37.412;2023-06-14T23:05:24;99269.53;;;17.65;38.58
69035;BME280;56091;55.756;37.412;2023-06-14T23:10:24;99274.19;;;17.64;39.37
69035;BME280;56091;55.756;37.412;2023-06-14T23:15:25;99255.97;;;17.46;38.97
69035;BME280;56091;55.756;37.412;2023-06-14T23:20:26;99266.25;;;17.49;39.36
69035;BME280;56091;55.756;37.412;2023-06-14T23:25:29;99274.56;;;17.44;39.69
69035;BME280;56091;55.756;37.412;2023-06-14T23:30:35;99252.50;;;17.26;39.86
69035;BME280;56091;55.756;37.412;2023-06-14T23:35:36;99272.91;;;17.29;40.26
69035;BME280;56091;55.756;37.412;2023-06-14T23:40:38;99260.28;;;17.19;39.97
69035;BME280;56091;55.756;37.412;2023-06-14T23:45:39;99254.47;;;17.07;40.65
69035;BME280;56091;55.756;37.412;2023-06-14T23:50:43;99261.25;;;17.09;40.59
69035;BME280;56091;55.756;37.412;2023-06-14T23:55:44;99264.06;;;17.04;40.75
